Flight Track Log - Related Links

Times and Time Zones

All times are in EDT time to prevent confusion due to time zone crossing. See the BJS527 flight status page for this flight to view local times or setup timezone preferences in your user account.

Time Position Orientation Groundspeed Altitude Reporting Facility
EDT Latitude Longitude Course Direction KTS MPH feet Rate Location/Type
Mon 04:00:14 PM 51.0500 -114.0500 235° Southwest 180 207 5,400  Level Edmonton Center
Mon 04:01:14 PM 50.9833 -114.0333 171° South 250 288 9,900 4,700 Climbing Edmonton Center
Mon 04:02:14 PM 50.9000 -114.0833 201° Southwest 290 334 14,800 4,350 Climbing Edmonton Center
Mon 04:03:14 PM 50.8333 -114.0833 180° South 320 368 18,600 3,600 Climbing Edmonton Center
Mon 04:04:14 PM 50.7167 -114.1500 200° South 350 403 22,000 3,100 Climbing Edmonton Center
Mon 04:05:00 PM 50.4677 -114.2361 189° South  Level Estimated
Mon 04:05:14 PM 50.6167 -114.1833 192° South 370 426 24,800  Level Edmonton Center
Mon 04:06:00 PM 50.3871 -114.3415 235° Southwest  Level FlightAware Approximate
Mon 04:06:14 PM 50.5167 -114.2167 192° South 390 449 27,600  Level Edmonton Center
Mon 04:07:14 PM 50.4167 -114.2667 198° South 400 460 30,200 2,450 Climbing Edmonton Center
Mon 04:08:14 PM 50.3333 -114.4167 229° Southwest 410 472 32,500 2,250 Climbing Edmonton Center
Mon 04:09:14 PM 50.2667 -114.5833 238° Southwest 420 483 34,700 2,050 Climbing Edmonton Center
Mon 04:10:14 PM 50.2167 -114.7333 243° Southwest 420 483 36,600 1,800 Climbing Edmonton Center
Mon 04:11:14 PM 50.1333 -114.8667 226° Southwest 420 483 38,300 1,450 Climbing Edmonton Center
Mon 04:12:14 PM 50.0667 -115.0167 235° Southwest 420 483 39,500 1,301 Climbing Edmonton Center
Mon 04:13:37 PM 49.9833 -115.1667 229° Southwest 410 472 41,400 1,301 Climbing Vancouver Center
Mon 04:14:37 PM 49.9000 -115.2833 222° Southwest 410 472 42,600 800 Climbing Vancouver Center
Mon 04:15:37 PM 49.8333 -115.4500 238° Southwest 410 472 43,000 200 Climbing Vancouver Center
Mon 04:16:37 PM 49.7833 -115.5667 236° Southwest 420 483 43,000  Level Vancouver Center
Mon 04:17:37 PM 49.7000 -115.7167 229° Southwest 420 483 43,000  Level Vancouver Center
Mon 04:18:37 PM 49.6333 -115.8833 238° Southwest 430 495 43,000  Level Vancouver Center
Mon 04:19:37 PM 49.5500 -116.0167 226° Southwest 420 483 43,000  Level Vancouver Center
Mon 04:20:37 PM 49.4667 -116.1167 218° Southwest 430 495 43,000  Level Vancouver Center
Mon 04:21:37 PM 49.3500 -116.2000 205° Southwest 430 495 43,000  Level Vancouver Center
Mon 04:22:37 PM 49.2333 -116.2667 200° South 440 506 43,000  Level Vancouver Center
Mon 04:23:37 PM 49.1167 -116.2667 180° South 440 506 43,000  Level Vancouver Center
Mon 04:24:37 PM 49.0000 -116.2667 180° South 440 506 43,000  Level Vancouver Center
Mon 04:26:13 PM 48.8172 -116.2942 186° South 443 510 43,000 -38 Level Seattle Center
Mon 04:27:14 PM 48.6936 -116.2922 179° South 443 510 42,900 -49 Descending Seattle Center
Mon 04:28:16 PM 48.5694 -116.2875 179° South 446 513 42,900 49 Level Seattle Center
Mon 04:29:17 PM 48.4458 -116.2858 179° South 446 513 43,000  Climbing Seattle Center
Mon 04:30:18 PM 48.3233 -116.2836 179° South 444 511 42,900  Descending Seattle Center
Mon 04:31:19 PM 48.1997 -116.2803 179° South 442 509 43,000 49 Climbing Seattle Center
Mon 04:32:20 PM 48.0747 -116.2772 179° South 446 513 43,000 -49 Level Seattle Center
Mon 04:33:21 PM 47.9514 -116.2744 179° South 445 512 42,900  Descending Seattle Center
Mon 04:34:22 PM 47.8286 -116.2731 180° South 442 509 43,000 49 Climbing Seattle Center
Mon 04:35:24 PM 47.7050 -116.2706 179° South 442 509 43,000  Level Seattle Center
Mon 04:36:25 PM 47.5806 -116.2683 179° South 443 510 43,000  Level Seattle Center
Mon 04:37:26 PM 47.4581 -116.2667 179° South 436 502 43,000  Level Seattle Center
Mon 04:38:27 PM 47.3097 -116.2633 179° South 441 507 43,000  Level Seattle Center
Mon 04:39:28 PM 47.1856 -116.2603 179° South 443 510 43,000  Level Seattle Center
Mon 04:40:30 PM 47.0603 -116.2586 179° South 447 514 43,000  Level Seattle Center
Mon 04:41:31 PM 46.9386 -116.2567 179° South 438 504 43,000  Level Seattle Center
Mon 04:42:32 PM 46.8153 -116.2531 179° South 442 509 43,000  Level Seattle Center
Mon 04:43:33 PM 46.6925 -116.2517 180° South 441 507 43,000  Level Seattle Center
Mon 04:44:34 PM 46.5703 -116.2489 179° South 439 505 43,000  Level Seattle Center
Mon 04:45:36 PM 46.4489 -116.2458 179° South 437 503 43,000 -49 Level Seattle Center
Mon 04:46:37 PM 46.3261 -116.2453 180° South 441 507 42,900  Descending Seattle Center
Mon 04:47:38 PM 46.2031 -116.2411 179° South 442 509 43,000 49 Climbing Seattle Center
Mon 04:48:39 PM 46.0800 -116.2394 179° South 442 509 43,000  Level Seattle Center
Mon 04:49:41 PM 45.9322 -116.2350 179° South 441 507 43,000  Level Seattle Center
Mon 04:50:42 PM 45.8086 -116.2358 180° South 444 511 43,000  Level Seattle Center
Mon 04:51:43 PM 45.6858 -116.2311 178° South 443 510 43,000 -738 Level Seattle Center
Mon 04:52:44 PM 45.5681 -116.2303 180° South 434 499 41,500 -2,066 Descending Seattle Center
Mon 04:53:45 PM 45.4300 -116.2247 178° South 440 506 38,800 -2,436 Descending Seattle Center
Mon 04:54:25 PM 45.3547 -116.2239 180° South 435 501 37,400 -2,118 Descending Salt Lake Center
Mon 04:55:27 PM 45.2417 -116.2228 180° South 429 494 35,200 -2,341 Descending Salt Lake Center
Mon 04:56:28 PM 45.1067 -116.2203 179° South 431 496 32,600 -2,341 Descending Salt Lake Center
Mon 04:57:30 PM 44.9883 -116.2181 179° South 439 505 30,400 -2,177 Descending Salt Lake Center
Mon 04:58:32 PM 44.8719 -116.2169 180° South 439 505 28,100 -2,419 Descending Salt Lake Center
Mon 04:59:34 PM 44.7331 -116.2150 179° South 444 511 25,400 -2,390 Descending Salt Lake Center
Mon 05:00:35 PM 44.6144 -116.2133 179° South 446 513 23,200 -2,341 Descending Salt Lake Center
Mon 05:01:37 PM 44.4819 -116.2119 180° South 437 503 20,600 -2,371 Descending Salt Lake Center
Mon 05:02:39 PM 44.3581 -116.2108 180° South 423 487 18,300 -2,032 Descending Salt Lake Center
Mon 05:03:41 PM 44.2578 -116.2069 178° South 399 459 16,400 -2,000 Descending Salt Lake Center
Mon 05:04:42 PM 44.1425 -116.2047 179° South 377 434 14,200 -1,659 Descending Salt Lake Center
Mon 05:05:44 PM 44.0461 -116.2033 179° South 364 419 13,000 -726 Descending Salt Lake Center
Mon 05:06:46 PM 43.9481 -116.2006 179° South 366 421 12,700 -1,452 Descending Salt Lake Center
Mon 05:07:48 PM 43.8400 -116.1994 180° South 350 403 10,000 -1,756 Descending Salt Lake Center
Mon 05:08:49 PM 43.7600 -116.1981 179° South 307 353 9,100 -829 Descending Salt Lake Center
Mon 05:09:51 PM 43.6728 -116.1953 179° South 274 315 8,300 -1,597 Descending Salt Lake Center
Mon 05:10:53 PM 43.6033 -116.1600 160° South 268 308 5,800 -1,887 Descending Salt Lake Center
Mon 05:11:55 PM 43.5431 -116.1006 144° Southeast 256 295 4,400 -1,016 Descending Salt Lake Center
Mon 05:12:57 PM 43.5397 -116.1494 265° West 163 188 3,700 -387 Descending Salt Lake Center
Mon 05:13:59 PM 43.5553 -116.1931 296° West 160 184 3,600 -97 Descending Salt Lake Center
Mon 05:15:00 PM 43.5500 -116.2167 285° West  Level FlightAware Approximate
Mon 05:22:00 PM 43.5644 -116.2229 285° West  Level Estimated

Login

Don't have an account? Register now (free) for customized features, flight alerts, and more!